sensor_id;sensor_type;location;lat;lon;timestamp;P1;durP1;ratioP1;P2;durP2;ratioP2
38567;SDS011;24338;48.280;10.970;2023-02-28T00:00:37;3.63;;;1.70;;
38567;SDS011;24338;48.280;10.970;2023-02-28T00:03:04;4.88;;;2.28;;
38567;SDS011;24338;48.280;10.970;2023-02-28T00:05:32;6.38;;;2.33;;
38567;SDS011;24338;48.280;10.970;2023-02-28T00:07:59;3.63;;;1.90;;
38567;SDS011;24338;48.280;10.970;2023-02-28T00:10:27;5.03;;;2.20;;
38567;SDS011;24338;48.280;10.970;2023-02-28T00:12:58;4.22;;;2.10;;
38567;SDS011;24338;48.280;10.970;2023-02-28T00:15:27;5.80;;;2.50;;
38567;SDS011;24338;48.280;10.970;2023-02-28T00:17:54;4.30;;;2.22;;
38567;SDS011;24338;48.280;10.970;2023-02-28T00:20:20;4.82;;;2.25;;
38567;SDS011;24338;48.280;10.970;2023-02-28T00:22:49;4.55;;;2.38;;
38567;SDS011;24338;48.280;10.970;2023-02-28T00:25:18;5.97;;;2.67;;
38567;SDS011;24338;48.280;10.970;2023-02-28T00:27:47;4.32;;;2.28;;
38567;SDS011;24338;48.280;10.970;2023-02-28T00:30:18;8.25;;;2.70;;
38567;SDS011;24338;48.280;10.970;2023-02-28T00:32:46;7.13;;;2.60;;
38567;SDS011;24338;48.280;10.970;2023-02-28T00:35:13;5.55;;;2.72;;
38567;SDS011;24338;48.280;10.970;2023-02-28T00:37:41;4.63;;;2.67;;
38567;SDS011;24338;48.280;10.970;2023-02-28T00:40:09;6.60;;;2.55;;
38567;SDS011;24338;48.280;10.970;2023-02-28T00:42:37;4.93;;;2.33;;
38567;SDS011;24338;48.280;10.970;2023-02-28T00:45:04;8.00;;;2.85;;
38567;SDS011;24338;48.280;10.970;2023-02-28T00:47:32;5.28;;;2.42;;
38567;SDS011;24338;48.280;10.970;2023-02-28T00:49:59;7.03;;;3.42;;
38567;SDS011;24338;48.280;10.970;2023-02-28T00:52:26;4.88;;;2.50;;
38567;SDS011;24338;48.280;10.970;2023-02-28T00:54:53;6.22;;;2.60;;
38567;SDS011;24338;48.280;10.970;2023-02-28T00:57:20;5.40;;;2.72;;
38567;SDS011;24338;48.280;10.970;2023-02-28T00:59:47;7.70;;;2.90;;
38567;SDS011;24338;48.280;10.970;2023-02-28T01:02:14;6.03;;;2.65;;
38567;SDS011;24338;48.280;10.970;2023-02-28T01:04:41;5.78;;;2.50;;
38567;SDS011;24338;48.280;10.970;2023-02-28T01:07:08;6.43;;;2.30;;
38567;SDS011;24338;48.280;10.970;2023-02-28T01:09:35;5.13;;;2.38;;
38567;SDS011;24338;48.280;10.970;2023-02-28T01:12:02;4.68;;;2.88;;
38567;SDS011;24338;48.280;10.970;2023-02-28T01:14:29;6.18;;;2.78;;
38567;SDS011;24338;48.280;10.970;2023-02-28T01:16:56;5.80;;;3.03;;
38567;SDS011;24338;48.280;10.970;2023-02-28T01:19:22;7.47;;;3.60;;
38567;SDS011;24338;48.280;10.970;2023-02-28T01:21:49;5.93;;;2.60;;
38567;SDS011;24338;48.280;10.970;2023-02-28T01:24:16;5.80;;;3.10;;
38567;SDS011;24338;48.280;10.970;2023-02-28T01:26:43;5.00;;;2.60;;
38567;SDS011;24338;48.280;10.970;2023-02-28T01:29:10;5.82;;;2.70;;
38567;SDS011;24338;48.280;10.970;2023-02-28T01:31:37;6.07;;;2.70;;
38567;SDS011;24338;48.280;10.970;2023-02-28T01:34:04;6.13;;;3.55;;
38567;SDS011;24338;48.280;10.970;2023-02-28T01:36:31;7.95;;;2.67;;
38567;SDS011;24338;48.280;10.970;2023-02-28T01:38:57;6.03;;;2.63;;
38567;SDS011;24338;48.280;10.970;2023-02-28T01:41:29;6.50;;;2.80;;
38567;SDS011;24338;48.280;10.970;2023-02-28T01:43:59;5.43;;;2.70;;
38567;SDS011;24338;48.280;10.970;2023-02-28T01:46:32;5.95;;;2.58;;
38567;SDS011;24338;48.280;10.970;2023-02-28T01:49:09;6.60;;;3.10;;
38567;SDS011;24338;48.280;10.970;2023-02-28T01:51:44;5.15;;;2.38;;
38567;SDS011;24338;48.280;10.970;2023-02-28T01:54:19;6.75;;;2.95;;
38567;SDS011;24338;48.280;10.970;2023-02-28T01:56:54;5.00;;;2.38;;
38567;SDS011;24338;48.280;10.970;2023-02-28T01:59:31;6.60;;;2.97;;
38567;SDS011;24338;48.280;10.970;2023-02-28T02:02:03;5.05;;;3.15;;
38567;SDS011;24338;48.280;10.970;2023-02-28T02:04:32;5.72;;;3.03;;
38567;SDS011;24338;48.280;10.970;2023-02-28T02:07:06;4.97;;;2.63;;
38567;SDS011;24338;48.280;10.970;2023-02-28T02:09:34;7.65;;;2.85;;
38567;SDS011;24338;48.280;10.970;2023-02-28T02:12:02;5.50;;;3.05;;
38567;SDS011;24338;48.280;10.970;2023-02-28T02:14:55;6.57;;;2.70;;
38567;SDS011;24338;48.280;10.970;2023-02-28T02:25:34;5.18;;;2.58;;
38567;SDS011;24338;48.280;10.970;2023-02-28T02:31:06;6.70;;;2.92;;
38567;SDS011;24338;48.280;10.970;2023-02-28T02:33:45;6.68;;;3.08;;
38567;SDS011;24338;48.280;10.970;2023-02-28T02:36:38;6.18;;;3.05;;
38567;SDS011;24338;48.280;10.970;2023-02-28T02:39:29;6.45;;;3.03;;
38567;SDS011;24338;48.280;10.970;2023-02-28T02:44:58;6.57;;;2.70;;
38567;SDS011;24338;48.280;10.970;2023-02-28T02:47:32;4.95;;;2.50;;
38567;SDS011;24338;48.280;10.970;2023-02-28T02:50:02;13.82;;;3.85;;
38567;SDS011;24338;48.280;10.970;2023-02-28T02:52:40;10.38;;;3.63;;
38567;SDS011;24338;48.280;10.970;2023-02-28T02:55:11;7.40;;;3.42;;
38567;SDS011;24338;48.280;10.970;2023-02-28T03:00:18;7.05;;;3.60;;
38567;SDS011;24338;48.280;10.970;2023-02-28T03:02:49;6.68;;;3.55;;
38567;SDS011;24338;48.280;10.970;2023-02-28T03:05:21;5.43;;;3.63;;
38567;SDS011;24338;48.280;10.970;2023-02-28T03:07:56;6.03;;;3.33;;
38567;SDS011;24338;48.280;10.970;2023-02-28T03:10:30;5.93;;;3.13;;
38567;SDS011;24338;48.280;10.970;2023-02-28T03:30:41;7.75;;;4.10;;
38567;SDS011;24338;48.280;10.970;2023-02-28T03:33:21;7.40;;;4.10;;
38567;SDS011;24338;48.280;10.970;2023-02-28T03:35:52;9.52;;;5.20;;
38567;SDS011;24338;48.280;10.970;2023-02-28T03:38:33;9.00;;;4.22;;
38567;SDS011;24338;48.280;10.970;2023-02-28T03:41:15;7.45;;;3.97;;
38567;SDS011;24338;48.280;10.970;2023-02-28T03:43:51;7.95;;;4.13;;
38567;SDS011;24338;48.280;10.970;2023-02-28T03:46:22;7.95;;;4.63;;
38567;SDS011;24338;48.280;10.970;2023-02-28T03:48:54;8.40;;;3.95;;
38567;SDS011;24338;48.280;10.970;2023-02-28T03:51:27;9.70;;;4.40;;
38567;SDS011;24338;48.280;10.970;2023-02-28T03:54:06;8.77;;;5.57;;
38567;SDS011;24338;48.280;10.970;2023-02-28T03:56:41;8.25;;;4.50;;
38567;SDS011;24338;48.280;10.970;2023-02-28T03:59:26;11.00;;;5.40;;
38567;SDS011;24338;48.280;10.970;2023-02-28T04:01:56;9.38;;;4.90;;
38567;SDS011;24338;48.280;10.970;2023-02-28T04:04:24;7.78;;;4.85;;
38567;SDS011;24338;48.280;10.970;2023-02-28T04:06:52;6.82;;;4.60;;
38567;SDS011;24338;48.280;10.970;2023-02-28T04:09:26;10.18;;;5.63;;
38567;SDS011;24338;48.280;10.970;2023-02-28T04:11:54;10.98;;;4.90;;
38567;SDS011;24338;48.280;10.970;2023-02-28T04:14:22;7.93;;;5.05;;
38567;SDS011;24338;48.280;10.970;2023-02-28T04:16:49;9.20;;;5.50;;
38567;SDS011;24338;48.280;10.970;2023-02-28T04:19:17;10.13;;;5.93;;
38567;SDS011;24338;48.280;10.970;2023-02-28T04:21:45;8.70;;;5.20;;
38567;SDS011;24338;48.280;10.970;2023-02-28T04:24:16;9.68;;;5.55;;
38567;SDS011;24338;48.280;10.970;2023-02-28T04:29:13;9.98;;;5.90;;
38567;SDS011;24338;48.280;10.970;2023-02-28T04:31:44;9.32;;;5.55;;
38567;SDS011;24338;48.280;10.970;2023-02-28T04:34:11;11.65;;;6.40;;
38567;SDS011;24338;48.280;10.970;2023-02-28T04:36:38;10.57;;;6.35;;
38567;SDS011;24338;48.280;10.970;2023-02-28T04:39:05;11.38;;;6.25;;
38567;SDS011;24338;48.280;10.970;2023-02-28T04:41:32;10.85;;;5.88;;
38567;SDS011;24338;48.280;10.970;2023-02-28T04:43:59;10.98;;;6.00;;
38567;SDS011;24338;48.280;10.970;2023-02-28T04:46:26;11.18;;;6.13;;
38567;SDS011;24338;48.280;10.970;2023-02-28T04:48:53;13.20;;;7.13;;
38567;SDS011;24338;48.280;10.970;2023-02-28T04:51:20;11.52;;;6.20;;
38567;SDS011;24338;48.280;10.970;2023-02-28T04:53:47;11.27;;;6.53;;
38567;SDS011;24338;48.280;10.970;2023-02-28T04:56:16;10.68;;;6.13;;
38567;SDS011;24338;48.280;10.970;2023-02-28T04:58:43;11.15;;;6.55;;
38567;SDS011;24338;48.280;10.970;2023-02-28T05:03:50;12.05;;;6.72;;
38567;SDS011;24338;48.280;10.970;2023-02-28T05:06:18;16.73;;;8.05;;
38567;SDS011;24338;48.280;10.970;2023-02-28T05:08:46;11.35;;;6.50;;
38567;SDS011;24338;48.280;10.970;2023-02-28T05:11:18;12.07;;;7.15;;
38567;SDS011;24338;48.280;10.970;2023-02-28T05:13:45;11.18;;;6.45;;
38567;SDS011;24338;48.280;10.970;2023-02-28T05:16:12;13.27;;;7.82;;
38567;SDS011;24338;48.280;10.970;2023-02-28T05:18:40;11.60;;;7.00;;
38567;SDS011;24338;48.280;10.970;2023-02-28T05:21:24;13.05;;;7.43;;
38567;SDS011;24338;48.280;10.970;2023-02-28T05:23:51;14.25;;;8.93;;
38567;SDS011;24338;48.280;10.970;2023-02-28T05:26:19;12.93;;;7.78;;
38567;SDS011;24338;48.280;10.970;2023-02-28T05:28:46;13.82;;;8.40;;
38567;SDS011;24338;48.280;10.970;2023-02-28T05:31:16;13.52;;;7.97;;
38567;SDS011;24338;48.280;10.970;2023-02-28T05:33:42;14.05;;;7.95;;
38567;SDS011;24338;48.280;10.970;2023-02-28T05:36:09;10.50;;;6.90;;
38567;SDS011;24338;48.280;10.970;2023-02-28T05:38:36;13.73;;;8.10;;
38567;SDS011;24338;48.280;10.970;2023-02-28T05:41:04;12.40;;;7.07;;
38567;SDS011;24338;48.280;10.970;2023-02-28T05:43:35;12.02;;;7.38;;
38567;SDS011;24338;48.280;10.970;2023-02-28T05:46:06;11.65;;;8.02;;
38567;SDS011;24338;48.280;10.970;2023-02-28T05:48:35;12.05;;;7.70;;
38567;SDS011;24338;48.280;10.970;2023-02-28T05:51:03;13.65;;;8.52;;
38567;SDS011;24338;48.280;10.970;2023-02-28T05:53:31;14.18;;;8.05;;
38567;SDS011;24338;48.280;10.970;2023-02-28T05:55:58;12.70;;;8.07;;
38567;SDS011;24338;48.280;10.970;2023-02-28T05:58:25;14.85;;;8.50;;
38567;SDS011;24338;48.280;10.970;2023-02-28T06:01:00;13.90;;;8.85;;
38567;SDS011;24338;48.280;10.970;2023-02-28T06:03:44;16.52;;;10.70;;
38567;SDS011;24338;48.280;10.970;2023-02-28T06:06:11;16.23;;;10.15;;
38567;SDS011;24338;48.280;10.970;2023-02-28T06:08:38;15.18;;;9.80;;
38567;SDS011;24338;48.280;10.970;2023-02-28T06:11:05;14.95;;;8.80;;
38567;SDS011;24338;48.280;10.970;2023-02-28T06:13:32;17.52;;;10.65;;
38567;SDS011;24338;48.280;10.970;2023-02-28T06:16:00;14.40;;;9.07;;
38567;SDS011;24338;48.280;10.970;2023-02-28T06:18:27;17.05;;;9.50;;
38567;SDS011;24338;48.280;10.970;2023-02-28T06:20:54;17.55;;;9.82;;
38567;SDS011;24338;48.280;10.970;2023-02-28T06:23:21;12.30;;;7.90;;
38567;SDS011;24338;48.280;10.970;2023-02-28T06:25:48;17.98;;;9.45;;
38567;SDS011;24338;48.280;10.970;2023-02-28T06:28:18;15.32;;;9.98;;
38567;SDS011;24338;48.280;10.970;2023-02-28T06:30:45;16.33;;;10.55;;
38567;SDS011;24338;48.280;10.970;2023-02-28T06:33:12;15.93;;;9.98;;
38567;SDS011;24338;48.280;10.970;2023-02-28T06:35:38;16.15;;;9.43;;
38567;SDS011;24338;48.280;10.970;2023-02-28T06:38:05;15.13;;;9.18;;
38567;SDS011;24338;48.280;10.970;2023-02-28T06:40:32;14.73;;;8.75;;
38567;SDS011;24338;48.280;10.970;2023-02-28T06:43:01;15.52;;;9.55;;
38567;SDS011;24338;48.280;10.970;2023-02-28T06:45:28;16.25;;;9.98;;
38567;SDS011;24338;48.280;10.970;2023-02-28T06:47:55;16.88;;;9.10;;
38567;SDS011;24338;48.280;10.970;2023-02-28T06:50:22;16.88;;;10.07;;
38567;SDS011;24338;48.280;10.970;2023-02-28T06:52:49;15.52;;;9.48;;
38567;SDS011;24338;48.280;10.970;2023-02-28T06:55:20;16.20;;;9.50;;
38567;SDS011;24338;48.280;10.970;2023-02-28T06:57:46;15.07;;;9.35;;
38567;SDS011;24338;48.280;10.970;2023-02-28T07:00:13;15.50;;;10.13;;
38567;SDS011;24338;48.280;10.970;2023-02-28T07:02:40;16.02;;;10.45;;
38567;SDS011;24338;48.280;10.970;2023-02-28T07:05:07;17.25;;;10.23;;
38567;SDS011;24338;48.280;10.970;2023-02-28T07:07:34;19.98;;;10.88;;
38567;SDS011;24338;48.280;10.970;2023-02-28T07:10:04;16.40;;;11.05;;
38567;SDS011;24338;48.280;10.970;2023-02-28T07:12:31;17.30;;;10.95;;
38567;SDS011;24338;48.280;10.970;2023-02-28T07:14:58;16.38;;;9.95;;
38567;SDS011;24338;48.280;10.970;2023-02-28T07:17:25;18.50;;;11.70;;
38567;SDS011;24338;48.280;10.970;2023-02-28T07:19:51;17.25;;;10.73;;
38567;SDS011;24338;48.280;10.970;2023-02-28T07:22:18;15.05;;;9.68;;
38567;SDS011;24338;48.280;10.970;2023-02-28T07:24:45;14.40;;;9.55;;
38567;SDS011;24338;48.280;10.970;2023-02-28T07:27:12;16.63;;;10.02;;
38567;SDS011;24338;48.280;10.970;2023-02-28T07:29:38;15.40;;;9.60;;
38567;SDS011;24338;48.280;10.970;2023-02-28T07:32:05;20.83;;;11.30;;
38567;SDS011;24338;48.280;10.970;2023-02-28T07:34:32;15.65;;;9.27;;
38567;SDS011;24338;48.280;10.970;2023-02-28T07:37:02;17.33;;;10.73;;
38567;SDS011;24338;48.280;10.970;2023-02-28T07:39:29;15.27;;;9.77;;
38567;SDS011;24338;48.280;10.970;2023-02-28T07:41:56;21.42;;;11.52;;
38567;SDS011;24338;48.280;10.970;2023-02-28T07:44:23;19.00;;;11.73;;
38567;SDS011;24338;48.280;10.970;2023-02-28T07:46:50;17.27;;;10.88;;
38567;SDS011;24338;48.280;10.970;2023-02-28T07:49:17;18.92;;;10.60;;
38567;SDS011;24338;48.280;10.970;2023-02-28T07:51:44;13.98;;;9.85;;
38567;SDS011;24338;48.280;10.970;2023-02-28T07:54:10;19.95;;;11.30;;
38567;SDS011;24338;48.280;10.970;2023-02-28T07:56:37;16.05;;;9.38;;
38567;SDS011;24338;48.280;10.970;2023-02-28T07:59:04;15.23;;;10.27;;
38567;SDS011;24338;48.280;10.970;2023-02-28T08:01:31;15.60;;;10.45;;
38567;SDS011;24338;48.280;10.970;2023-02-28T08:03:58;18.38;;;11.18;;
38567;SDS011;24338;48.280;10.970;2023-02-28T08:06:25;14.13;;;9.38;;
38567;SDS011;24338;48.280;10.970;2023-02-28T08:08:52;15.95;;;9.75;;
38567;SDS011;24338;48.280;10.970;2023-02-28T08:11:19;16.30;;;11.75;;
38567;SDS011;24338;48.280;10.970;2023-02-28T08:13:49;16.77;;;10.63;;
38567;SDS011;24338;48.280;10.970;2023-02-28T08:16:16;18.23;;;10.93;;
38567;SDS011;24338;48.280;10.970;2023-02-28T08:18:51;15.93;;;11.07;;
38567;SDS011;24338;48.280;10.970;2023-02-28T08:21:19;20.70;;;13.57;;
38567;SDS011;24338;48.280;10.970;2023-02-28T08:23:50;17.73;;;10.98;;
38567;SDS011;24338;48.280;10.970;2023-02-28T08:26:17;17.42;;;11.35;;
38567;SDS011;24338;48.280;10.970;2023-02-28T08:28:45;18.00;;;11.60;;
38567;SDS011;24338;48.280;10.970;2023-02-28T08:31:13;15.07;;;10.10;;
38567;SDS011;24338;48.280;10.970;2023-02-28T08:33:41;16.25;;;11.00;;
38567;SDS011;24338;48.280;10.970;2023-02-28T08:36:10;15.95;;;10.27;;
38567;SDS011;24338;48.280;10.970;2023-02-28T08:38:40;19.63;;;11.55;;
38567;SDS011;24338;48.280;10.970;2023-02-28T08:41:07;18.27;;;11.52;;
38567;SDS011;24338;48.280;10.970;2023-02-28T08:43:37;21.95;;;11.50;;
38567;SDS011;24338;48.280;10.970;2023-02-28T08:46:05;16.05;;;10.25;;
38567;SDS011;24338;48.280;10.970;2023-02-28T08:48:34;18.08;;;11.45;;
38567;SDS011;24338;48.280;10.970;2023-02-28T08:51:05;16.90;;;10.82;;
38567;SDS011;24338;48.280;10.970;2023-02-28T08:53:35;15.48;;;10.75;;
38567;SDS011;24338;48.280;10.970;2023-02-28T08:56:07;17.48;;;11.45;;
38567;SDS011;24338;48.280;10.970;2023-02-28T09:03:58;23.42;;;11.05;;
38567;SDS011;24338;48.280;10.970;2023-02-28T09:06:26;21.90;;;12.27;;
38567;SDS011;24338;48.280;10.970;2023-02-28T09:08:57;18.70;;;11.40;;
38567;SDS011;24338;48.280;10.970;2023-02-28T09:11:25;18.80;;;10.45;;
38567;SDS011;24338;48.280;10.970;2023-02-28T09:13:52;16.73;;;10.35;;
38567;SDS011;24338;48.280;10.970;2023-02-28T09:16:21;15.80;;;10.40;;
38567;SDS011;24338;48.280;10.970;2023-02-28T09:18:48;16.15;;;10.73;;
38567;SDS011;24338;48.280;10.970;2023-02-28T09:21:15;18.67;;;10.40;;
38567;SDS011;24338;48.280;10.970;2023-02-28T09:23:44;15.95;;;10.55;;
38567;SDS011;24338;48.280;10.970;2023-02-28T09:26:13;18.63;;;10.93;;
38567;SDS011;24338;48.280;10.970;2023-02-28T09:28:45;18.25;;;11.77;;
38567;SDS011;24338;48.280;10.970;2023-02-28T09:31:13;17.92;;;11.32;;
38567;SDS011;24338;48.280;10.970;2023-02-28T09:33:42;17.60;;;10.88;;
38567;SDS011;24338;48.280;10.970;2023-02-28T09:36:09;19.25;;;11.10;;
38567;SDS011;24338;48.280;10.970;2023-02-28T09:38:36;27.58;;;12.65;;
38567;SDS011;24338;48.280;10.970;2023-02-28T09:41:03;20.52;;;11.27;;
38567;SDS011;24338;48.280;10.970;2023-02-28T09:43:38;22.67;;;11.65;;
38567;SDS011;24338;48.280;10.970;2023-02-28T09:48:55;19.38;;;11.43;;
38567;SDS011;24338;48.280;10.970;2023-02-28T09:51:27;17.52;;;11.25;;
38567;SDS011;24338;48.280;10.970;2023-02-28T09:53:55;18.63;;;11.23;;
38567;SDS011;24338;48.280;10.970;2023-02-28T09:56:36;17.48;;;10.93;;
38567;SDS011;24338;48.280;10.970;2023-02-28T10:05:28;13.90;;;10.25;;
38567;SDS011;24338;48.280;10.970;2023-02-28T10:10:43;18.13;;;11.90;;
38567;SDS011;24338;48.280;10.970;2023-02-28T10:16:03;20.08;;;10.80;;
38567;SDS011;24338;48.280;10.970;2023-02-28T10:18:40;18.77;;;11.02;;
38567;SDS011;24338;48.280;10.970;2023-02-28T10:24:16;16.30;;;11.45;;
38567;SDS011;24338;48.280;10.970;2023-02-28T10:27:21;14.40;;;10.02;;
38567;SDS011;24338;48.280;10.970;2023-02-28T10:29:53;20.17;;;11.05;;
38567;SDS011;24338;48.280;10.970;2023-02-28T10:34:52;22.10;;;11.23;;
38567;SDS011;24338;48.280;10.970;2023-02-28T10:37:23;14.80;;;9.73;;
38567;SDS011;24338;48.280;10.970;2023-02-28T10:39:50;18.05;;;11.02;;
38567;SDS011;24338;48.280;10.970;2023-02-28T10:42:27;14.80;;;10.68;;
38567;SDS011;24338;48.280;10.970;2023-02-28T10:45:15;18.15;;;12.23;;
38567;SDS011;24338;48.280;10.970;2023-02-28T10:50:37;15.50;;;10.15;;
38567;SDS011;24338;48.280;10.970;2023-02-28T10:56:26;18.90;;;10.40;;
38567;SDS011;24338;48.280;10.970;2023-02-28T10:59:01;17.38;;;11.25;;
38567;SDS011;24338;48.280;10.970;2023-02-28T11:03:59;14.52;;;9.68;;
38567;SDS011;24338;48.280;10.970;2023-02-28T11:06:28;17.33;;;10.93;;
38567;SDS011;24338;48.280;10.970;2023-02-28T11:08:58;15.60;;;11.65;;
38567;SDS011;24338;48.280;10.970;2023-02-28T11:11:31;19.30;;;11.05;;
38567;SDS011;24338;48.280;10.970;2023-02-28T11:14:25;15.55;;;11.73;;
38567;SDS011;24338;48.280;10.970;2023-02-28T11:17:19;20.77;;;12.07;;
38567;SDS011;24338;48.280;10.970;2023-02-28T11:19:56;18.38;;;10.95;;
38567;SDS011;24338;48.280;10.970;2023-02-28T11:22:35;17.90;;;10.82;;
38567;SDS011;24338;48.280;10.970;2023-02-28T11:25:28;15.20;;;11.25;;
38567;SDS011;24338;48.280;10.970;2023-02-28T11:27:59;13.82;;;10.50;;
38567;SDS011;24338;48.280;10.970;2023-02-28T11:32:57;14.45;;;10.07;;
38567;SDS011;24338;48.280;10.970;2023-02-28T11:35:29;15.57;;;10.20;;
38567;SDS011;24338;48.280;10.970;2023-02-28T11:38:02;14.75;;;10.45;;
38567;SDS011;24338;48.280;10.970;2023-02-28T12:05:43;23.30;;;10.52;;
38567;SDS011;24338;48.280;10.970;2023-02-28T12:19:30;14.63;;;9.77;;
38567;SDS011;24338;48.280;10.970;2023-02-28T12:27:41;14.75;;;10.18;;
38567;SDS011;24338;48.280;10.970;2023-02-28T12:33:01;14.80;;;10.05;;
38567;SDS011;24338;48.280;10.970;2023-02-28T12:35:41;13.98;;;9.00;;
38567;SDS011;24338;48.280;10.970;2023-02-28T12:38:17;13.88;;;9.43;;
38567;SDS011;24338;48.280;10.970;2023-02-28T12:40:56;16.25;;;11.15;;
38567;SDS011;24338;48.280;10.970;2023-02-28T12:43:27;20.75;;;11.48;;
38567;SDS011;24338;48.280;10.970;2023-02-28T12:48:38;19.63;;;11.55;;
38567;SDS011;24338;48.280;10.970;2023-02-28T12:51:09;18.17;;;10.40;;
38567;SDS011;24338;48.280;10.970;2023-02-28T12:53:42;13.13;;;9.75;;
38567;SDS011;24338;48.280;10.970;2023-02-28T12:56:38;15.43;;;9.05;;
38567;SDS011;24338;48.280;10.970;2023-02-28T13:10:37;14.98;;;10.23;;
38567;SDS011;24338;48.280;10.970;2023-02-28T13:13:06;14.90;;;10.18;;
38567;SDS011;24338;48.280;10.970;2023-02-28T13:15:39;15.85;;;9.63;;
38567;SDS011;24338;48.280;10.970;2023-02-28T13:18:28;15.10;;;10.27;;
38567;SDS011;24338;48.280;10.970;2023-02-28T13:20:56;14.15;;;9.48;;
38567;SDS011;24338;48.280;10.970;2023-02-28T13:26:07;14.60;;;10.00;;
38567;SDS011;24338;48.280;10.970;2023-02-28T13:34:37;14.15;;;9.95;;
38567;SDS011;24338;48.280;10.970;2023-02-28T13:42:33;14.38;;;8.68;;
38567;SDS011;24338;48.280;10.970;2023-02-28T13:48:04;13.05;;;8.80;;
38567;SDS011;24338;48.280;10.970;2023-02-28T13:50:29;15.43;;;9.68;;
38567;SDS011;24338;48.280;10.970;2023-02-28T13:53:08;15.32;;;9.77;;
38567;SDS011;24338;48.280;10.970;2023-02-28T14:06:47;13.90;;;9.85;;
38567;SDS011;24338;48.280;10.970;2023-02-28T14:09:24;14.82;;;9.82;;
38567;SDS011;24338;48.280;10.970;2023-02-28T14:11:55;13.32;;;8.60;;
38567;SDS011;24338;48.280;10.970;2023-02-28T14:15:23;15.13;;;9.50;;
38567;SDS011;24338;48.280;10.970;2023-02-28T14:17:14;18.90;;;9.55;;
38567;SDS011;24338;48.280;10.970;2023-02-28T14:19:44;13.23;;;9.27;;
38567;SDS011;24338;48.280;10.970;2023-02-28T14:28:19;12.60;;;8.93;;
38567;SDS011;24338;48.280;10.970;2023-02-28T14:31:13;13.57;;;9.05;;
38567;SDS011;24338;48.280;10.970;2023-02-28T14:34:00;13.60;;;9.40;;
38567;SDS011;24338;48.280;10.970;2023-02-28T14:36:49;14.75;;;9.27;;
38567;SDS011;24338;48.280;10.970;2023-02-28T14:39:27;13.68;;;9.55;;
38567;SDS011;24338;48.280;10.970;2023-02-28T14:41:57;14.07;;;8.77;;
38567;SDS011;24338;48.280;10.970;2023-02-28T14:44:35;13.00;;;8.85;;
38567;SDS011;24338;48.280;10.970;2023-02-28T14:47:02;16.02;;;10.75;;
38567;SDS011;24338;48.280;10.970;2023-02-28T14:52:06;14.40;;;9.23;;
38567;SDS011;24338;48.280;10.970;2023-02-28T14:54:42;13.65;;;8.82;;
38567;SDS011;24338;48.280;10.970;2023-02-28T14:57:27;30.20;;;11.43;;
38567;SDS011;24338;48.280;10.970;2023-02-28T15:02:56;19.17;;;11.73;;
38567;SDS011;24338;48.280;10.970;2023-02-28T15:05:26;21.83;;;12.05;;
38567;SDS011;24338;48.280;10.970;2023-02-28T15:10:49;17.85;;;10.52;;
38567;SDS011;24338;48.280;10.970;2023-02-28T15:13:21;17.52;;;11.07;;
38567;SDS011;24338;48.280;10.970;2023-02-28T15:15:51;17.33;;;10.82;;
38567;SDS011;24338;48.280;10.970;2023-02-28T15:18:38;17.85;;;10.23;;
38567;SDS011;24338;48.280;10.970;2023-02-28T15:21:11;18.75;;;11.40;;
38567;SDS011;24338;48.280;10.970;2023-02-28T15:23:45;17.10;;;11.82;;
38567;SDS011;24338;48.280;10.970;2023-02-28T15:26:17;18.58;;;11.50;;
38567;SDS011;24338;48.280;10.970;2023-02-28T15:28:49;23.05;;;12.75;;
38567;SDS011;24338;48.280;10.970;2023-02-28T15:31:27;14.07;;;10.07;;
38567;SDS011;24338;48.280;10.970;2023-02-28T15:34:42;14.93;;;10.07;;
38567;SDS011;24338;48.280;10.970;2023-02-28T15:40:30;15.65;;;10.40;;
38567;SDS011;24338;48.280;10.970;2023-02-28T15:43:07;14.55;;;8.90;;
38567;SDS011;24338;48.280;10.970;2023-02-28T15:45:59;18.30;;;10.40;;
38567;SDS011;24338;48.280;10.970;2023-02-28T15:51:32;12.20;;;8.80;;
38567;SDS011;24338;48.280;10.970;2023-02-28T15:54:04;13.32;;;9.57;;
38567;SDS011;24338;48.280;10.970;2023-02-28T15:56:35;16.90;;;9.15;;
38567;SDS011;24338;48.280;10.970;2023-02-28T15:59:14;16.45;;;10.32;;
38567;SDS011;24338;48.280;10.970;2023-02-28T16:01:44;14.75;;;9.88;;
38567;SDS011;24338;48.280;10.970;2023-02-28T16:04:15;12.52;;;9.05;;
38567;SDS011;24338;48.280;10.970;2023-02-28T16:07:00;14.50;;;9.57;;
38567;SDS011;24338;48.280;10.970;2023-02-28T16:09:27;18.85;;;10.82;;
38567;SDS011;24338;48.280;10.970;2023-02-28T16:12:00;16.38;;;9.38;;
38567;SDS011;24338;48.280;10.970;2023-02-28T16:14:28;16.75;;;10.32;;
38567;SDS011;24338;48.280;10.970;2023-02-28T16:17:02;14.80;;;9.48;;
38567;SDS011;24338;48.280;10.970;2023-02-28T16:19:32;13.30;;;9.25;;
38567;SDS011;24338;48.280;10.970;2023-02-28T16:22:00;16.50;;;10.68;;
38567;SDS011;24338;48.280;10.970;2023-02-28T16:24:27;14.38;;;10.57;;
38567;SDS011;24338;48.280;10.970;2023-02-28T16:26:54;15.13;;;10.82;;
38567;SDS011;24338;48.280;10.970;2023-02-28T16:32:00;16.88;;;11.73;;
38567;SDS011;24338;48.280;10.970;2023-02-28T16:34:30;16.75;;;11.10;;
38567;SDS011;24338;48.280;10.970;2023-02-28T16:36:57;21.33;;;12.82;;
38567;SDS011;24338;48.280;10.970;2023-02-28T16:39:24;16.90;;;11.93;;
38567;SDS011;24338;48.280;10.970;2023-02-28T16:41:51;22.65;;;15.25;;
38567;SDS011;24338;48.280;10.970;2023-02-28T16:44:26;19.13;;;12.82;;
38567;SDS011;24338;48.280;10.970;2023-02-28T16:47:02;19.48;;;12.27;;
38567;SDS011;24338;48.280;10.970;2023-02-28T16:49:30;16.42;;;11.65;;
38567;SDS011;24338;48.280;10.970;2023-02-28T16:51:57;24.92;;;13.15;;
38567;SDS011;24338;48.280;10.970;2023-02-28T16:54:24;18.10;;;12.25;;
38567;SDS011;24338;48.280;10.970;2023-02-28T16:56:51;18.73;;;12.30;;
38567;SDS011;24338;48.280;10.970;2023-02-28T16:59:24;22.88;;;15.18;;
38567;SDS011;24338;48.280;10.970;2023-02-28T17:01:52;20.52;;;14.00;;
38567;SDS011;24338;48.280;10.970;2023-02-28T17:04:20;20.48;;;14.52;;
38567;SDS011;24338;48.280;10.970;2023-02-28T17:06:48;22.60;;;14.52;;
38567;SDS011;24338;48.280;10.970;2023-02-28T17:09:16;21.95;;;13.55;;
38567;SDS011;24338;48.280;10.970;2023-02-28T17:11:44;22.67;;;14.00;;
38567;SDS011;24338;48.280;10.970;2023-02-28T17:14:11;20.75;;;13.82;;
38567;SDS011;24338;48.280;10.970;2023-02-28T17:16:38;22.23;;;14.25;;
38567;SDS011;24338;48.280;10.970;2023-02-28T17:19:06;21.40;;;13.70;;
38567;SDS011;24338;48.280;10.970;2023-02-28T17:21:37;18.17;;;12.37;;
38567;SDS011;24338;48.280;10.970;2023-02-28T17:24:04;18.02;;;12.38;;
38567;SDS011;24338;48.280;10.970;2023-02-28T17:26:31;15.77;;;11.43;;
38567;SDS011;24338;48.280;10.970;2023-02-28T17:28:59;16.85;;;10.35;;
38567;SDS011;24338;48.280;10.970;2023-02-28T17:31:26;17.17;;;10.98;;
38567;SDS011;24338;48.280;10.970;2023-02-28T17:33:53;16.83;;;9.77;;
38567;SDS011;24338;48.280;10.970;2023-02-28T17:36:22;19.40;;;12.18;;
38567;SDS011;24338;48.280;10.970;2023-02-28T17:38:52;18.75;;;11.55;;
38567;SDS011;24338;48.280;10.970;2023-02-28T17:41:21;32.05;;;20.20;;
38567;SDS011;24338;48.280;10.970;2023-02-28T17:43:48;57.42;;;37.75;;
38567;SDS011;24338;48.280;10.970;2023-02-28T17:46:18;66.28;;;41.67;;